createdAt,value
2019-05-26T00:02:04.290Z,7.75
2019-05-26T00:04:40.061Z,7.25
2019-05-26T00:07:09.544Z,6.03
2019-05-26T00:09:45.954Z,6.28
2019-05-26T00:12:16.093Z,5.87
2019-05-26T00:14:51.914Z,5.47
2019-05-26T00:17:28.278Z,4.97
2019-05-26T00:20:14.958Z,5.53
2019-05-26T00:22:44.414Z,5.40
2019-05-26T00:25:21.279Z,5.35
2019-05-26T00:27:57.826Z,4.78
2019-05-26T00:30:34.440Z,4.53
2019-05-26T00:33:03.996Z,4.10
2019-05-26T00:35:40.258Z,4.22
2019-05-26T00:38:16.344Z,4.08
2019-05-26T00:40:46.361Z,4.55
2019-05-26T00:43:22.441Z,4.58
2019-05-26T00:45:58.208Z,4.05
2019-05-26T00:48:27.793Z,4.15
2019-05-26T00:51:04.307Z,4.17
2019-05-26T00:53:33.889Z,4.50
2019-05-26T00:56:16.851Z,4.03
2019-05-26T00:58:46.384Z,4.50
2019-05-26T01:01:21.884Z,4.40
2019-05-26T01:03:57.508Z,4.50
2019-05-26T01:06:34.148Z,4.90
2019-05-26T01:09:04.806Z,5.05
2019-05-26T01:11:40.554Z,4.72
2019-05-26T01:14:10.145Z,4.80
2019-05-26T01:16:46.749Z,4.95
2019-05-26T01:19:22.789Z,4.62
2019-05-26T01:22:05.739Z,4.78
2019-05-26T01:24:35.263Z,5.00
2019-05-26T01:27:11.935Z,5.12
2019-05-26T01:29:48.369Z,4.65
2019-05-26T01:32:17.895Z,5.08
2019-05-26T01:34:54.554Z,5.17
2019-05-26T01:37:24.311Z,5.25
2019-05-26T01:40:00.339Z,5.03
2019-05-26T01:42:29.799Z,5.20
2019-05-26T01:44:59.318Z,5.60
2019-05-26T01:47:35.269Z,5.40
2019-05-26T01:50:11.887Z,5.70
2019-05-26T01:52:48.379Z,5.28
2019-05-26T01:55:17.846Z,5.60
2019-05-26T01:57:53.684Z,6.12
2019-05-26T02:00:23.551Z,5.80
2019-05-26T02:03:00.142Z,5.67
2019-05-26T02:05:29.757Z,5.55
2019-05-26T02:08:06.375Z,5.85
2019-05-26T02:10:35.888Z,6.03
2019-05-26T02:13:12.238Z,5.95
2019-05-26T02:15:47.971Z,6.05
2019-05-26T02:18:23.564Z,5.72
2019-05-26T02:21:06.618Z,6.05
2019-05-26T02:23:42.634Z,5.70
2019-05-26T02:26:19.074Z,5.58
2019-05-26T02:28:55.604Z,5.80
2019-05-26T02:31:25.055Z,5.80
2019-05-26T02:34:01.477Z,5.75
2019-05-26T02:36:37.677Z,6.20
2019-05-26T02:39:10.520Z,5.85
2019-05-26T02:41:46.830Z,5.70
2019-05-26T02:44:16.279Z,5.45
2019-05-26T02:46:52.276Z,5.35
2019-05-26T02:49:21.828Z,5.85
2019-05-26T02:51:51.277Z,6.05
2019-05-26T02:54:27.587Z,5.83
2019-05-26T02:57:03.875Z,5.97
2019-05-26T02:59:35.045Z,5.55
2019-05-26T03:02:05.110Z,5.58
2019-05-26T03:04:41.830Z,5.97
2019-05-26T03:07:20.190Z,5.92
2019-05-26T03:09:50.965Z,5.97
2019-05-26T03:12:37.524Z,6.10
2019-05-26T03:15:16.993Z,6.20
2019-05-26T03:17:49.882Z,6.10
2019-05-26T03:20:26.941Z,5.70
2019-05-26T03:23:05.549Z,5.70
2019-05-26T03:25:43.963Z,6.17
2019-05-26T03:28:13.476Z,5.28
2019-05-26T03:30:49.122Z,5.65
2019-05-26T03:33:24.733Z,5.50
2019-05-26T03:36:01.193Z,5.35
2019-05-26T03:38:30.658Z,5.62
2019-05-26T03:41:06.311Z,5.33
2019-05-26T03:43:42.523Z,5.45
2019-05-26T03:46:18.378Z,5.62
2019-05-26T03:49:01.948Z,6.17
2019-05-26T03:51:31.405Z,5.90
2019-05-26T03:54:07.972Z,5.87
2019-05-26T03:56:37.494Z,5.65
2019-05-26T03:59:13.215Z,6.37
2019-05-26T04:01:42.671Z,5.50
2019-05-26T04:04:18.274Z,5.20
2019-05-26T04:06:54.298Z,5.40
2019-05-26T04:09:30.680Z,5.10
2019-05-26T04:12:07.185Z,4.80
2019-05-26T04:14:43.356Z,5.40
2019-05-26T04:17:12.879Z,5.50
2019-05-26T04:19:50.363Z,4.55
2019-05-26T04:22:32.970Z,4.62
2019-05-26T04:25:09.573Z,5.10
2019-05-26T04:27:39.028Z,4.65
2019-05-26T04:30:15.980Z,4.60
2019-05-26T04:32:45.501Z,4.65
2019-05-26T04:35:22.203Z,4.35
2019-05-26T04:37:51.648Z,4.20
2019-05-26T04:40:28.234Z,4.50
2019-05-26T04:42:57.820Z,4.83
2019-05-26T04:45:35.823Z,4.30
2019-05-26T04:48:06.022Z,4.08
2019-05-26T04:50:48.412Z,4.60
2019-05-26T04:53:17.938Z,4.05
2019-05-26T04:55:53.578Z,4.72
2019-05-26T04:58:23.179Z,4.35
2019-05-26T05:00:59.520Z,4.47
2019-05-26T05:03:29.050Z,4.55
2019-05-26T05:06:05.062Z,4.62
2019-05-26T05:08:34.580Z,4.22
2019-05-26T05:11:11.178Z,4.25
2019-05-26T05:13:40.657Z,4.42
2019-05-26T05:16:16.526Z,4.28
2019-05-26T05:18:45.983Z,4.00
2019-05-26T05:21:22.611Z,4.20
2019-05-26T05:23:59.114Z,3.92
2019-05-26T05:26:35.144Z,3.92
2019-05-26T05:29:04.928Z,3.90
2019-05-26T05:31:34.438Z,4.00
2019-05-26T05:34:11.343Z,3.77
2019-05-26T05:36:40.865Z,3.60
2019-05-26T05:39:16.528Z,3.27
2019-05-26T05:41:59.473Z,3.22
2019-05-26T05:44:35.520Z,3.70
2019-05-26T05:47:05.659Z,4.30
2019-05-26T05:49:48.332Z,3.90
2019-05-26T05:52:17.792Z,3.75
2019-05-26T05:54:53.952Z,4.03
2019-05-26T05:57:23.476Z,3.67
2019-05-26T06:00:06.249Z,3.80
2019-05-26T06:02:35.763Z,2.80
2019-05-26T06:05:07.305Z,3.42
2019-05-26T06:07:43.318Z,3.87
2019-05-26T06:10:13.775Z,3.45
2019-05-26T06:12:50.462Z,2.90
2019-05-26T06:15:20.126Z,2.98
2019-05-26T06:17:56.050Z,3.20
2019-05-26T06:20:32.669Z,3.12
2019-05-26T06:23:09.044Z,3.02
2019-05-26T06:25:51.476Z,3.30
2019-05-26T06:28:27.090Z,3.12
2019-05-26T06:30:56.546Z,3.45
2019-05-26T06:33:32.993Z,2.83
2019-05-26T06:36:02.644Z,3.10
2019-05-26T06:38:38.847Z,3.65
2019-05-26T06:41:08.512Z,3.00
2019-05-26T06:43:45.011Z,3.27
2019-05-26T06:46:14.527Z,3.25
2019-05-26T06:48:44.149Z,2.77
2019-05-26T06:51:20.564Z,2.80
2019-05-26T06:53:56.264Z,2.83
2019-05-26T06:56:31.948Z,2.95
2019-05-26T06:59:02.969Z,2.92
2019-05-26T07:01:38.855Z,2.77
2019-05-26T07:04:15.402Z,2.85
2019-05-26T07:06:44.948Z,3.10
2019-05-26T07:09:21.429Z,3.27
2019-05-26T07:11:59.641Z,3.00
2019-05-26T07:14:28.430Z,3.20
2019-05-26T07:17:05.210Z,3.10
2019-05-26T07:19:41.630Z,2.95
2019-05-26T07:22:11.302Z,3.55
2019-05-26T07:24:47.725Z,3.25
2019-05-26T07:27:23.895Z,3.60
2019-05-26T07:29:59.945Z,3.70
2019-05-26T07:32:29.460Z,3.10
2019-05-26T07:35:05.810Z,3.62
2019-05-26T07:37:35.470Z,3.37
2019-05-26T07:40:13.353Z,3.27
2019-05-26T07:42:42.792Z,3.50
2019-05-26T07:45:19.605Z,3.50
2019-05-26T07:47:49.120Z,3.35
2019-05-26T07:50:18.775Z,3.37
2019-05-26T07:52:55.477Z,3.40
2019-05-26T07:55:32.833Z,3.67
2019-05-26T07:58:09.296Z,3.60
2019-05-26T08:00:38.972Z,3.72
2019-05-26T08:03:15.494Z,3.60
2019-05-26T08:05:44.961Z,3.02
2019-05-26T08:08:14.542Z,3.52
2019-05-26T08:10:50.872Z,3.25
2019-05-26T08:13:26.769Z,3.33
2019-05-26T08:15:56.685Z,3.60
2019-05-26T08:18:26.144Z,3.65
2019-05-26T08:21:01.776Z,3.47
2019-05-26T08:23:38.370Z,3.67
2019-05-26T08:26:14.308Z,3.40
2019-05-26T08:28:50.901Z,3.87
2019-05-26T08:31:20.489Z,3.77
2019-05-26T08:33:56.573Z,3.50
2019-05-26T08:36:26.165Z,3.58
2019-05-26T08:39:02.886Z,3.90
2019-05-26T08:41:32.335Z,3.92
2019-05-26T08:44:08.148Z,3.90
2019-05-26T08:46:37.807Z,3.40
2019-05-26T08:49:07.426Z,3.70
2019-05-26T08:51:50.198Z,3.40
2019-05-26T08:54:19.886Z,3.58
2019-05-26T08:56:56.056Z,3.75
2019-05-26T08:59:32.686Z,3.20
2019-05-26T09:02:09.390Z,3.33
2019-05-26T09:04:45.267Z,2.80
2019-05-26T09:07:14.811Z,3.70
2019-05-26T09:09:44.381Z,6.08
2019-05-26T09:12:20.072Z,2.83
2019-05-26T09:14:55.806Z,3.52
2019-05-26T09:17:25.389Z,2.92
2019-05-26T09:20:01.346Z,2.45
2019-05-26T09:22:37.517Z,2.40
2019-05-26T09:25:07.882Z,2.90
2019-05-26T09:27:50.492Z,2.80
2019-05-26T09:30:26.854Z,2.45
2019-05-26T09:33:02.525Z,3.02
2019-05-26T09:35:32.216Z,3.27
2019-05-26T09:38:08.710Z,3.10
2019-05-26T09:40:38.378Z,2.70
2019-05-26T09:43:16.542Z,2.52
2019-05-26T09:45:52.495Z,3.15
2019-05-26T09:48:21.945Z,2.98
2019-05-26T09:50:58.422Z,2.75
2019-05-26T09:53:35.003Z,2.62
2019-05-26T09:56:11.503Z,5.25
2019-05-26T09:58:47.422Z,2.75
2019-05-26T10:01:23.410Z,2.40
2019-05-26T10:03:52.937Z,2.33
2019-05-26T10:06:22.395Z,2.40
2019-05-26T10:08:58.792Z,2.67
2019-05-26T10:11:28.331Z,2.27
2019-05-26T10:14:05.385Z,1.50
2019-05-26T10:16:41.628Z,2.27
2019-05-26T10:19:17.326Z,1.90
2019-05-26T10:21:53.091Z,2.52
2019-05-26T10:24:22.547Z,2.30
2019-05-26T10:27:05.772Z,2.30
2019-05-26T10:29:48.513Z,2.55
2019-05-26T10:32:18.153Z,2.20
2019-05-26T10:34:55.210Z,1.80
2019-05-26T10:37:24.705Z,2.25
2019-05-26T10:40:00.527Z,2.17
2019-05-26T10:42:30.123Z,1.90
2019-05-26T10:45:06.343Z,1.90
2019-05-26T10:47:42.802Z,2.20
2019-05-26T10:50:12.764Z,1.75
2019-05-26T10:52:48.940Z,1.95
2019-05-26T10:55:18.533Z,1.40
2019-05-26T10:57:54.856Z,1.98
2019-05-26T11:00:32.986Z,1.90
2019-05-26T11:03:02.135Z,1.75
2019-05-26T11:05:38.307Z,1.77
2019-05-26T11:08:07.970Z,2.08
2019-05-26T11:10:50.567Z,1.95
2019-05-26T11:13:20.094Z,1.92
2019-05-26T11:15:56.692Z,1.90
2019-05-26T11:18:26.375Z,1.75
2019-05-26T11:21:02.954Z,1.95
2019-05-26T11:23:38.693Z,1.70
2019-05-26T11:26:08.355Z,1.50
2019-05-26T11:28:50.852Z,1.82
2019-05-26T11:31:20.422Z,1.62
2019-05-26T11:33:56.870Z,1.50
2019-05-26T11:36:26.496Z,2.30
2019-05-26T11:39:02.818Z,2.20
2019-05-26T11:41:39.290Z,1.57
2019-05-26T11:44:17.691Z,2.10
2019-05-26T11:46:48.507Z,1.92
2019-05-26T11:49:17.985Z,1.80
2019-05-26T11:51:53.575Z,2.58
2019-05-26T11:54:23.178Z,1.90
2019-05-26T11:57:00.398Z,2.10
2019-05-26T11:59:36.497Z,1.98
2019-05-26T12:02:06.161Z,2.27
2019-05-26T12:04:48.616Z,1.90
2019-05-26T12:07:18.152Z,2.00
2019-05-26T12:09:54.434Z,1.98
2019-05-26T12:12:23.885Z,2.65
2019-05-26T12:15:00.210Z,2.50
2019-05-26T12:17:29.792Z,2.10
2019-05-26T12:20:06.004Z,2.17
2019-05-26T12:22:35.597Z,2.22
2019-05-26T12:25:17.896Z,2.00
2019-05-26T12:27:47.416Z,2.40
2019-05-26T12:30:23.756Z,2.12
2019-05-26T12:32:53.215Z,2.17
2019-05-26T12:35:31.564Z,2.15
2019-05-26T12:38:01.090Z,2.50
2019-05-26T12:40:30.675Z,2.40
2019-05-26T12:43:07.172Z,2.60
2019-05-26T12:45:43.119Z,2.62
2019-05-26T12:48:12.775Z,2.25
2019-05-26T12:50:42.640Z,3.60
2019-05-26T12:53:18.716Z,3.47
2019-05-26T12:55:48.174Z,2.77
2019-05-26T12:58:30.077Z,2.67
2019-05-26T13:00:59.607Z,2.47
2019-05-26T13:03:29.198Z,3.15
2019-05-26T13:06:05.562Z,2.60
2019-05-26T13:08:36.625Z,2.40
2019-05-26T13:11:13.278Z,2.20
2019-05-26T13:13:42.874Z,4.40
2019-05-26T13:16:25.565Z,2.40
2019-05-26T13:18:54.998Z,1.97
2019-05-26T13:21:38.238Z,2.30
2019-05-26T13:24:07.823Z,2.30
2019-05-26T13:26:43.594Z,2.80
2019-05-26T13:29:13.055Z,4.08
2019-05-26T13:31:56.297Z,4.25
2019-05-26T13:34:25.963Z,3.20
2019-05-26T13:37:02.066Z,4.65
2019-05-26T13:39:31.577Z,4.67
2019-05-26T13:42:07.968Z,2.75
2019-05-26T13:44:37.479Z,2.77
2019-05-26T13:47:25.389Z,3.17
2019-05-26T13:49:44.843Z,2.20
2019-05-26T13:52:23.670Z,2.83
2019-05-26T13:55:00.204Z,2.50
2019-05-26T13:57:36.763Z,3.20
2019-05-26T14:00:16.340Z,2.15
2019-05-26T14:02:53.052Z,2.60
2019-05-26T14:05:22.647Z,3.10
2019-05-26T14:08:01.346Z,2.52
2019-05-26T14:10:37.224Z,2.70
2019-05-26T14:13:15.079Z,2.40
2019-05-26T14:15:50.913Z,3.00
2019-05-26T14:18:28.362Z,2.85
2019-05-26T14:21:04.658Z,2.62
2019-05-26T14:23:34.269Z,2.67
2019-05-26T14:26:10.492Z,3.00
2019-05-26T14:28:40.006Z,2.52
2019-05-26T14:31:16.341Z,3.55
2019-05-26T14:33:52.260Z,3.10
2019-05-26T14:36:27.885Z,3.60
2019-05-26T14:38:57.393Z,2.90
2019-05-26T14:41:33.757Z,2.80
2019-05-26T14:44:03.288Z,3.17
2019-05-26T14:46:39.694Z,2.87
2019-05-26T14:49:15.876Z,2.60
2019-05-26T14:51:52.106Z,3.30
2019-05-26T14:54:28.369Z,2.65
2019-05-26T14:57:04.713Z,3.00
2019-05-26T14:59:34.232Z,3.00
2019-05-26T15:02:10.473Z,3.45
2019-05-26T15:04:46.432Z,2.98
2019-05-26T15:07:23.233Z,3.30
2019-05-26T15:09:52.687Z,3.50
2019-05-26T15:12:29.308Z,2.90
2019-05-26T15:15:07.696Z,3.00
2019-05-26T15:17:37.263Z,3.25
2019-05-26T15:20:14.609Z,3.08
2019-05-26T15:22:44.134Z,3.22
2019-05-26T15:25:21.083Z,3.00
2019-05-26T15:27:50.545Z,3.02
2019-05-26T15:30:27.336Z,3.87
2019-05-26T15:33:09.989Z,3.52
2019-05-26T15:35:46.474Z,3.85
2019-05-26T15:38:22.525Z,3.33
2019-05-26T15:40:58.536Z,3.80
2019-05-26T15:43:28.126Z,3.27
2019-05-26T15:45:57.660Z,3.42
2019-05-26T15:48:33.919Z,4.12
2019-05-26T15:51:03.521Z,5.03
2019-05-26T15:53:46.111Z,10.68
2019-05-26T15:56:22.621Z,5.90
2019-05-26T15:58:52.148Z,3.90
2019-05-26T16:01:21.770Z,3.50
2019-05-26T16:03:57.594Z,4.00
2019-05-26T16:06:27.128Z,3.35
2019-05-26T16:09:03.227Z,3.45
2019-05-26T16:11:32.749Z,3.40
2019-05-26T16:14:08.500Z,3.58
2019-05-26T16:16:41.156Z,3.17
2019-05-26T16:19:15.742Z,3.70
2019-05-26T16:21:51.576Z,3.45
2019-05-26T16:24:21.124Z,3.87
2019-05-26T16:27:00.404Z,3.37
2019-05-26T16:29:28.543Z,3.12
2019-05-26T16:32:04.912Z,2.90
2019-05-26T16:34:40.712Z,3.12
2019-05-26T16:37:17.141Z,3.02
2019-05-26T16:39:55.836Z,3.27
2019-05-26T16:42:30.318Z,3.52
2019-05-26T16:44:59.843Z,2.98
2019-05-26T16:47:36.363Z,3.65
2019-05-26T16:50:15.100Z,3.05
2019-05-26T16:52:44.552Z,2.90
2019-05-26T16:55:27.364Z,3.30
2019-05-26T16:57:56.988Z,2.72
2019-05-26T17:00:32.844Z,2.77
2019-05-26T17:03:09.324Z,2.77
2019-05-26T17:05:38.871Z,3.65
2019-05-26T17:08:14.585Z,3.00
2019-05-26T17:10:44.052Z,3.42
2019-05-26T17:13:19.830Z,3.33
2019-05-26T17:15:49.299Z,3.00
2019-05-26T17:18:18.839Z,3.10
2019-05-26T17:20:55.051Z,3.20
2019-05-26T17:23:24.718Z,3.37
2019-05-26T17:26:00.548Z,3.50
2019-05-26T17:28:30.207Z,3.42
2019-05-26T17:31:06.721Z,3.10
2019-05-26T17:33:43.163Z,3.65
2019-05-26T17:36:25.723Z,3.50
2019-05-26T17:38:55.333Z,3.60
2019-05-26T17:41:31.026Z,3.22
2019-05-26T17:44:07.084Z,3.77
2019-05-26T17:46:43.767Z,3.83
2019-05-26T17:49:13.285Z,4.08
2019-05-26T17:51:44.495Z,3.25
2019-05-26T17:54:33.949Z,3.67
2019-05-26T17:57:03.573Z,4.33
2019-05-26T17:59:33.245Z,3.80
2019-05-26T18:02:08.751Z,3.83
2019-05-26T18:04:45.359Z,3.72
2019-05-26T18:07:21.988Z,4.08
2019-05-26T18:09:51.524Z,3.95
2019-05-26T18:12:27.422Z,3.70
2019-05-26T18:14:56.949Z,3.80
2019-05-26T18:17:46.399Z,3.70
2019-05-26T18:20:13.533Z,4.10
2019-05-26T18:22:49.765Z,3.80
2019-05-26T18:25:19.409Z,3.87
2019-05-26T18:27:55.377Z,3.70
2019-05-26T18:30:25.279Z,3.80
2019-05-26T18:33:02.613Z,3.87
2019-05-26T18:35:38.834Z,3.60
2019-05-26T18:38:15.127Z,4.50
2019-05-26T18:40:51.975Z,5.28
2019-05-26T18:43:27.926Z,4.67
2019-05-26T18:45:57.632Z,4.70
2019-05-26T18:48:36.053Z,4.15
2019-05-26T18:51:05.737Z,4.33
2019-05-26T18:53:42.479Z,4.53
2019-05-26T18:56:18.824Z,4.45
2019-05-26T18:58:57.588Z,4.67
2019-05-26T19:01:27.257Z,4.37
2019-05-26T19:04:08.072Z,4.50
2019-05-26T19:06:35.091Z,4.70
2019-05-26T19:09:13.849Z,4.55
2019-05-26T19:11:43.519Z,5.42
2019-05-26T19:14:32.756Z,4.85
2019-05-26T19:17:09.188Z,4.65
2019-05-26T19:19:48.594Z,5.03
2019-05-26T19:22:24.942Z,4.97
2019-05-26T19:24:54.471Z,5.17
2019-05-26T19:27:30.368Z,5.00
2019-05-26T19:30:06.535Z,5.22
2019-05-26T19:32:36.130Z,5.80
2019-05-26T19:35:14.603Z,6.00
2019-05-26T19:37:50.387Z,5.80
2019-05-26T19:40:27.219Z,5.35
2019-05-26T19:42:57.913Z,5.47
2019-05-26T19:45:34.036Z,5.80
2019-05-26T19:48:03.677Z,5.90
2019-05-26T19:50:39.731Z,5.65
2019-05-26T19:53:17.690Z,5.60
2019-05-26T19:55:47.356Z,6.00
2019-05-26T19:58:30.368Z,5.42
2019-05-26T20:01:08.302Z,6.50
2019-05-26T20:03:38.203Z,5.65
2019-05-26T20:06:14.445Z,5.50
2019-05-26T20:08:51.066Z,5.47
2019-05-26T20:11:27.354Z,5.58
2019-05-26T20:13:56.981Z,5.45
2019-05-26T20:16:30.380Z,5.65
2019-05-26T20:19:04.909Z,5.47
2019-05-26T20:21:42.228Z,5.70
2019-05-26T20:24:18.623Z,5.55
2019-05-26T20:26:48.100Z,5.40
2019-05-26T20:29:23.913Z,5.90
2019-05-26T20:31:59.703Z,5.62
2019-05-26T20:34:31.857Z,5.60
2019-05-26T20:37:14.589Z,6.03
2019-05-26T20:39:44.041Z,5.85
2019-05-26T20:42:20.508Z,5.75
2019-05-26T20:44:57.230Z,5.80
2019-05-26T20:47:26.756Z,5.58
2019-05-26T20:49:56.226Z,5.15
2019-05-26T20:52:32.060Z,5.50
2019-05-26T20:55:01.548Z,5.78
2019-05-26T20:57:37.647Z,5.60
2019-05-26T21:00:11.517Z,5.97
2019-05-26T21:02:48.830Z,5.65
2019-05-26T21:05:19.506Z,5.65
2019-05-26T21:07:55.964Z,5.83
2019-05-26T21:10:32.035Z,5.90
2019-05-26T21:13:08.203Z,6.08
2019-05-26T21:15:37.801Z,5.42
2019-05-26T21:18:14.165Z,5.20
2019-05-26T21:20:45.220Z,5.50
2019-05-26T21:23:22.731Z,5.05
2019-05-26T21:25:52.427Z,5.00
2019-05-26T21:28:28.155Z,4.80
2019-05-26T21:30:57.747Z,4.95
2019-05-26T21:33:33.839Z,5.30
2019-05-26T21:36:09.481Z,5.10
2019-05-26T21:38:45.539Z,5.15
2019-05-26T21:41:28.583Z,5.08
2019-05-26T21:43:58.104Z,5.80
2019-05-26T21:46:34.849Z,5.17
2019-05-26T21:49:11.268Z,5.28
2019-05-26T21:51:40.788Z,4.92
2019-05-26T21:54:16.751Z,5.40
2019-05-26T21:56:46.198Z,4.97
2019-05-26T21:59:22.157Z,4.55
2019-05-26T22:01:51.614Z,5.12
2019-05-26T22:04:27.732Z,4.90
2019-05-26T22:06:57.258Z,5.15
2019-05-26T22:09:33.444Z,5.05
2019-05-26T22:12:02.939Z,5.15
2019-05-26T22:14:39.035Z,4.95
2019-05-26T22:17:21.814Z,5.05
2019-05-26T22:19:58.133Z,4.40
2019-05-26T22:22:33.722Z,5.58
2019-05-26T22:25:03.515Z,4.78
2019-05-26T22:27:39.172Z,5.60
2019-05-26T22:30:10.541Z,5.20
2019-05-26T22:32:47.013Z,5.60
2019-05-26T22:35:16.676Z,5.22
2019-05-26T22:37:53.189Z,5.83
2019-05-26T22:40:29.068Z,5.65
2019-05-26T22:43:04.760Z,5.33
2019-05-26T22:45:41.250Z,5.00
2019-05-26T22:48:17.054Z,5.17
2019-05-26T22:50:46.506Z,4.87
2019-05-26T22:53:22.634Z,4.75
2019-05-26T22:55:52.201Z,4.67
2019-05-26T22:58:21.661Z,4.62
2019-05-26T23:00:57.857Z,4.75
2019-05-26T23:03:28.958Z,4.62
2019-05-26T23:06:04.664Z,4.60
2019-05-26T23:08:34.179Z,4.42
2019-05-26T23:11:15.987Z,4.75
2019-05-26T23:13:45.581Z,4.10
2019-05-26T23:16:21.775Z,4.53
2019-05-26T23:18:51.296Z,4.35
2019-05-26T23:21:27.411Z,3.95
2019-05-26T23:23:56.865Z,4.40
2019-05-26T23:26:33.472Z,3.72
2019-05-26T23:29:02.925Z,4.00
2019-05-26T23:31:39.152Z,3.77
2019-05-26T23:34:08.592Z,3.83
2019-05-26T23:36:44.342Z,4.35
2019-05-26T23:39:20.810Z,3.70
2019-05-26T23:41:57.173Z,4.22
2019-05-26T23:44:26.691Z,4.15
2019-05-26T23:47:09.012Z,4.37
2019-05-26T23:49:38.535Z,4.78
2019-05-26T23:52:14.734Z,3.92
2019-05-26T23:54:44.274Z,4.55
2019-05-26T23:57:13.786Z,4.08
2019-05-26T23:59:50.119Z,3.90
